.
WxDataArchive / Data Records for 2014-03-14
2014-03-13 March 2014 2014-03-15

Data Records for Friday, 14 March 2014

Time	Temp	Chill	HIndex	Humid	Dewpt	 Wind 	HiWind	WindDir	Rain 	Barom
-----	----	-----	------	-----	-----	------	------	-------	-----	-----
00:00	28.5	28.5	28.5	77	22.2	0	1	202	0.00	29.992 
00:05	28.7	28.7	28.7	76	22.1	0	2	202	0.00	29.992 
00:10	28.8	28.8	28.8	76	22.2	0	2	202	0.00	29.992 
00:15	29.1	29.1	29.1	75	22.2	0	3	202	0.00	29.986 
00:20	29.3	29.3	29.3	74	22.1	0	3	202	0.00	29.986 
00:25	29.5	29.5	29.5	74	22.3	1	3	202	0.00	29.986 
00:30	30.0	30.0	30.0	73	22.4	1	4	248	0.00	29.979 
00:35	30.3	30.3	30.3	72	22.4	1	3	248	0.00	29.979 
00:40	30.4	30.4	30.4	71	22.1	0	2	248	0.00	29.979 
00:45	30.6	30.6	30.6	71	22.3	1	7	270	0.00	29.972 
00:50	30.9	30.9	30.9	70	22.3	1	5	270	0.00	29.972 
00:55	31.0	31.0	31.0	70	22.4	1	4	248	0.00	29.972 
01:00	31.0	31.0	31.0	70	22.4	1	3	225	0.00	29.969 
01:05	31.3	31.3	31.3	69	22.3	0	2	270	0.00	29.969 
01:10	31.3	31.3	31.3	69	22.3	0	3	270	0.00	29.969 
01:15	31.3	31.3	31.3	69	22.3	1	5	248	0.00	29.962 
01:20	31.5	31.5	31.5	69	22.5	0	3	248	0.00	29.962 
01:25	31.5	31.5	31.5	69	22.5	1	4	248	0.00	29.962 
01:30	31.6	31.6	31.6	69	22.6	0	3	270	0.00	29.955 
01:35	31.6	31.6	31.6	69	22.6	0	2	270	0.00	29.955 
01:40	31.6	31.6	31.6	69	22.6	1	3	248	0.00	29.955 
01:45	31.6	31.6	31.6	69	22.6	0	3	248	0.00	29.951 
01:50	31.8	31.8	31.8	70	23.2	1	6	248	0.00	29.951 
01:55	31.9	31.9	31.9	69	22.9	1	5	248	0.00	29.951 
02:00	32.1	32.1	32.1	69	23.1	1	3	270	0.00	29.949 
02:05	32.2	32.2	32.2	69	23.2	1	4	270	0.00	29.949 
02:10	32.2	32.2	32.2	69	23.2	1	4	248	0.00	29.949 
02:15	32.4	32.4	32.4	69	23.4	1	6	248	0.00	29.940 
02:20	32.4	32.4	32.4	69	23.4	0	4	248	0.00	29.940 
02:25	32.4	32.4	32.4	69	23.4	0	3	270	0.00	29.940 
02:30	32.4	32.4	32.4	68	23.0	0	3	270	0.00	29.937 
02:35	32.4	32.4	32.4	69	23.4	0	3	248	0.00	29.937 
02:40	32.4	32.4	32.4	69	23.4	1	5	248	0.00	29.937 
02:45	32.4	32.4	32.4	69	23.4	1	5	270	0.00	29.936 
02:50	32.5	32.5	32.5	69	23.5	1	6	248	0.00	29.936 
02:55	32.4	32.4	32.4	69	23.4	0	3	248	0.00	29.936 
03:00	32.5	32.5	32.5	69	23.5	1	3	270	0.00	29.934 
03:05	32.4	32.4	32.4	69	23.4	1	3	270	0.00	29.934 
03:10	32.4	32.4	32.4	70	23.7	1	4	248	0.00	29.934 
03:15	32.4	32.4	32.4	70	23.7	1	4	225	0.00	29.929 
03:20	32.4	32.4	32.4	70	23.7	1	3	225	0.00	29.929 
03:25	32.5	32.5	32.5	70	23.8	0	3	248	0.00	29.929 
03:30	32.5	32.5	32.5	70	23.8	1	4	248	0.00	29.919 
03:35	32.5	32.5	32.5	70	23.8	0	3	248	0.00	29.919 
03:40	32.5	32.5	32.5	70	23.8	0	4	248	0.00	29.919 
03:45	32.5	32.5	32.5	71	24.2	0	4	248	0.00	29.911 
03:50	32.4	32.4	32.4	71	24.1	1	4	248	0.00	29.911 
03:55	32.4	32.4	32.4	71	24.1	0	2	248	0.00	29.911 
04:00	32.5	32.5	32.5	71	24.2	0	3	248	0.00	29.904 
04:05	32.5	32.5	32.5	71	24.2	0	3	248	0.00	29.904 
04:10	32.5	32.5	32.5	71	24.2	0	3	248	0.00	29.904 
04:15	32.7	32.7	32.7	71	24.4	0	3	248	0.00	29.901 
04:20	32.7	32.7	32.7	71	24.4	0	3	248	0.00	29.901 
04:25	32.7	32.7	32.7	71	24.4	0	1	248	0.00	29.901 
04:30	32.7	32.7	32.7	71	24.4	0	2	248	0.00	29.896 
04:35	32.7	32.7	32.7	72	24.7	0	3	248	0.00	29.896 
04:40	32.8	32.8	32.8	71	24.4	0	2	248	0.00	29.896 
04:45	32.8	32.8	32.8	72	24.8	0	2	248	0.00	29.888 
04:50	32.8	32.8	32.8	72	24.8	0	1	248	0.00	29.888 
04:55	32.9	32.9	32.9	72	24.9	0	2	248	0.00	29.888 
05:00	32.9	32.9	32.9	72	24.9	0	3	248	0.00	29.885 
05:05	32.9	32.9	32.9	72	24.9	0	2	248	0.00	29.885 
05:10	32.9	32.9	32.9	72	24.9	0	1	248	0.00	29.885 
05:15	32.9	32.9	32.9	72	24.9	0	1	248	0.00	29.880 
05:20	32.9	32.9	32.9	72	24.9	0	1	248	0.00	29.880 
05:25	32.8	32.8	32.8	73	25.1	0	1	248	0.00	29.880 
05:30	32.8	32.8	32.8	73	25.1	0	2	248	0.00	29.876 
05:35	32.8	32.8	32.8	73	25.1	0	1	248	0.00	29.876 
05:40	32.7	32.7	32.7	73	25.0	0	1	248	0.00	29.876 
05:45	32.7	32.7	32.7	73	25.0	0	1	248	0.00	29.869 
05:50	32.7	32.7	32.7	73	25.0	0	2	248	0.00	29.869 
05:55	32.8	32.8	32.8	73	25.1	0	2	248	0.00	29.869 
06:00	32.9	32.9	32.9	73	25.2	0	1	248	0.00	29.866 
06:05	33.1	33.1	33.1	73	25.4	0	2	248	0.00	29.866 
06:10	33.2	33.2	33.2	73	25.5	0	3	248	0.00	29.866 
06:15	33.2	33.2	33.2	73	25.5	0	1	248	0.00	29.859 
06:20	33.4	33.4	33.4	73	25.7	0	2	248	0.00	29.859 
06:25	33.2	33.2	33.2	73	25.5	0	1	248	0.00	29.859 
06:30	33.2	33.2	33.2	73	25.5	0	3	248	0.00	29.853 
06:35	33.4	33.4	33.4	73	25.7	0	1	248	0.00	29.853 
06:40	33.4	33.4	33.4	73	25.7	0	2	248	0.00	29.853 
06:45	33.4	33.4	33.4	73	25.7	0	2	248	0.00	29.843 
06:50	33.5	33.5	33.5	73	25.8	0	2	248	0.00	29.843 
06:55	33.8	33.8	33.8	73	26.1	0	2	248	0.00	29.843 
07:00	34.0	34.0	34.0	73	26.3	0	3	248	0.00	29.838 
07:05	34.1	34.1	34.1	73	26.4	0	2	248	0.00	29.838 
07:10	34.3	34.3	34.3	72	26.2	0	2	248	0.00	29.838 
07:15	34.6	34.6	34.6	72	26.5	1	3	248	0.00	29.835 
07:20	34.7	34.7	34.7	72	26.6	0	4	248	0.00	29.835 
07:25	34.9	34.9	34.9	72	26.8	1	3	248	0.00	29.835 
07:30	35.0	35.0	35.0	72	26.9	0	2	248	0.00	29.832 
07:35	35.0	35.0	35.0	72	26.9	0	4	248	0.00	29.832 
07:40	35.2	35.2	35.2	72	27.1	0	3	248	0.00	29.832 
07:45	35.3	35.3	35.3	72	27.2	1	4	248	0.00	29.830 
07:50	35.5	35.5	35.5	72	27.4	1	3	248	0.00	29.830 
07:55	35.5	35.5	35.5	72	27.4	0	2	248	0.00	29.830 
08:00	35.6	35.6	35.6	72	27.5	1	4	270	0.00	29.824 
08:05	35.9	35.9	35.9	72	27.8	1	5	248	0.00	29.824 
08:10	36.2	36.2	36.2	72	28.1	1	6	68	0.00	29.824 
08:15	36.3	36.3	36.3	71	27.8	1	4	292	0.00	29.830 
08:20	36.5	36.5	36.5	72	28.3	1	5	248	0.00	29.830 
08:25	36.8	36.8	36.8	71	28.3	1	5	248	0.00	29.830 
08:30	37.0	37.0	37.0	70	28.1	1	6	248	0.00	29.822 
08:35	37.3	37.3	37.3	70	28.4	1	5	248	0.00	29.822 
08:40	37.8	37.8	37.8	69	28.6	1	4	248	0.00	29.822 
08:45	38.0	38.0	38.0	69	28.7	2	7	248	0.00	29.817 
08:50	38.3	38.3	38.3	69	29.0	2	6	248	0.00	29.817 
08:55	38.5	38.5	38.5	68	28.9	2	12	248	0.00	29.817 
09:00	38.8	38.8	38.8	68	29.2	1	5	270	0.00	29.817 
09:05	39.1	39.1	39.1	68	29.4	2	10	248	0.00	29.817 
09:10	39.1	39.1	39.1	68	29.4	1	6	248	0.00	29.817 
09:15	39.3	39.3	39.3	66	28.9	2	9	248	0.00	29.814 
09:20	39.6	39.6	39.6	66	29.2	1	4	270	0.00	29.814 
09:25	39.9	39.9	39.9	65	29.1	2	10	248	0.00	29.814 
09:30	40.2	40.2	40.2	65	29.4	1	5	270	0.01	29.802 
09:35	40.3	40.3	40.3	65	29.5	2	10	248	0.00	29.802 
09:40	40.6	40.6	40.6	64	29.4	2	5	248	0.00	29.802 
09:45	40.9	40.9	40.9	64	29.7	2	6	248	0.00	29.802 
09:50	41.1	41.1	41.1	64	29.9	2	6	248	0.00	29.802 
09:55	41.3	41.3	41.3	63	29.7	2	11	248	0.01	29.802 
10:00	41.3	41.3	41.3	63	29.7	2	7	248	0.00	29.799 
10:05	41.5	41.5	41.5	63	29.9	2	9	248	0.00	29.799 
10:10	41.5	41.5	41.5	63	29.9	2	6	248	0.00	29.799 
10:15	41.6	41.6	41.6	63	30.0	2	7	248	0.01	29.793 
10:20	41.8	41.8	41.8	63	30.1	2	6	270	0.00	29.793 
10:25	42.2	42.2	42.2	62	30.1	1	5	248	0.00	29.793 
10:30	42.5	42.5	42.5	61	30.0	2	8	270	0.00	29.782 
10:35	42.9	42.9	42.9	61	30.4	3	13	248	0.00	29.782 
10:40	43.1	43.1	43.1	60	30.2	2	5	248	0.01	29.782 
10:45	43.1	43.1	43.1	59	29.8	3	9	248	0.00	29.777 
10:50	43.2	43.2	43.2	59	29.9	2	7	248	0.00	29.777 
10:55	43.5	43.5	43.5	59	30.1	2	5	248	0.00	29.777 
11:00	43.6	43.6	43.6	59	30.2	2	7	248	0.00	29.771 
11:05	43.8	43.8	43.8	58	30.0	3	9	248	0.01	29.771 
11:10	44.1	44.1	44.1	57	29.9	3	11	248	0.00	29.771 
11:15	44.3	44.3	44.3	57	30.0	3	9	248	0.00	29.777 
11:20	44.3	44.3	44.3	57	30.0	2	9	248	0.00	29.777 
11:25	44.2	44.2	44.2	58	30.4	2	8	248	0.00	29.777 
11:30	44.1	44.1	44.1	58	30.3	2	7	248	0.00	29.776 
11:35	44.5	44.5	44.5	57	30.2	2	7	248	0.00	29.776 
11:40	44.8	44.8	44.8	57	30.5	2	6	270	0.00	29.776 
11:45	45.1	45.1	45.1	57	30.8	2	6	248	0.00	29.763 
11:50	45.5	45.5	45.5	56	30.7	2	7	248	0.00	29.763 
11:55	46.0	46.0	46.0	55	30.7	3	9	248	0.00	29.763 
12:00	46.2	46.2	46.2	55	30.9	2	6	248	0.00	29.748 
12:05	46.5	46.5	46.5	54	30.8	1	4	248	0.00	29.748 
12:10	46.5	46.5	46.5	54	30.8	3	9	248	0.00	29.748 
12:15	46.4	46.4	46.4	54	30.7	2	6	248	0.00	29.731 
12:20	46.5	46.5	46.5	55	31.2	1	5	248	0.00	29.731 
12:25	46.7	46.7	46.7	54	30.9	2	6	270	0.00	29.731 
12:30	47.0	47.0	47.0	54	31.2	2	6	248	0.00	29.724 
12:35	47.0	47.0	47.0	53	30.8	3	12	248	0.00	29.724 
12:40	47.0	47.0	47.0	53	30.8	3	10	248	0.00	29.724 
12:45	47.1	47.1	47.1	53	30.9	3	11	248	0.00	29.710 
12:50	47.4	47.4	47.4	53	31.1	2	7	248	0.00	29.710 
12:55	47.6	47.6	47.6	53	31.3	2	8	248	0.00	29.710 
13:00	47.9	47.9	47.9	52	31.1	2	4	248	0.00	29.697 
13:05	48.2	48.2	48.2	52	31.4	2	6	248	0.00	29.697 
13:10	48.5	48.5	48.5	51	31.2	2	9	270	0.00	29.697 
13:15	48.6	48.6	48.6	51	31.3	2	6	248	0.00	29.689 
13:20	48.8	48.8	48.8	51	31.5	2	7	248	0.00	29.689 
13:25	48.9	48.9	48.9	51	31.6	3	11	270	0.00	29.689 
13:30	48.9	48.9	48.9	51	31.6	3	12	315	0.00	29.679 
13:35	48.9	48.9	48.9	51	31.6	3	11	248	0.00	29.679 
13:40	49.1	49.1	49.1	51	31.8	2	10	248	0.00	29.679 
13:45	49.2	49.2	49.2	51	31.9	2	7	248	0.00	29.685 
13:50	49.5	49.5	49.5	51	32.1	2	6	270	0.00	29.685 
13:55	49.8	49.8	49.8	51	32.4	2	10	292	0.00	29.685 
14:00	50.1	50.1	50.1	50	32.2	3	10	270	0.00	29.678 
14:05	49.9	49.9	49.9	51	32.5	2	9	248	0.00	29.678 
14:10	50.2	50.2	50.2	51	32.8	2	6	248	0.00	29.678 
14:15	50.4	50.4	50.4	51	33.0	3	11	248	0.00	29.669 
14:20	50.5	50.5	50.5	51	33.1	2	6	248	0.00	29.669 
14:25	50.8	50.8	50.8	51	33.3	2	9	248	0.00	29.669 
14:30	51.0	51.0	51.0	51	33.5	2	6	248	0.00	29.665 
14:35	51.3	51.3	51.3	51	33.8	2	5	248	0.00	29.665 
14:40	51.6	51.6	51.6	50	33.6	2	5	248	0.00	29.665 
14:45	51.7	51.7	51.7	50	33.7	2	6	248	0.00	29.657 
14:50	52.0	52.0	52.0	50	33.9	2	5	248	0.00	29.657 
14:55	52.3	52.3	52.3	48	33.2	2	9	248	0.00	29.657 
15:00	52.6	52.6	52.6	48	33.5	2	5	270	0.00	29.648 
15:05	53.1	53.1	53.1	47	33.4	2	5	248	0.00	29.648 
15:10	53.5	53.5	53.5	46	33.2	2	7	248	0.00	29.648 
15:15	53.8	53.8	53.8	45	33.0	3	9	248	0.00	29.639 
15:20	53.9	53.9	53.9	45	33.1	3	7	248	0.00	29.639 
15:25	54.2	54.2	54.2	45	33.3	3	10	248	0.00	29.639 
15:30	54.1	54.1	54.1	45	33.2	4	11	248	0.00	29.636 
15:35	54.1	54.1	54.1	46	33.8	4	14	248	0.00	29.636 
15:40	54.1	54.1	54.1	46	33.8	4	14	248	0.00	29.636 
15:45	54.4	54.4	54.4	46	34.1	3	9	248	0.00	29.635 
15:50	54.5	54.5	54.5	46	34.1	3	9	270	0.00	29.635 
15:55	54.7	54.7	54.7	46	34.3	3	7	248	0.00	29.635 
16:00	55.0	55.0	55.0	46	34.6	3	9	248	0.00	29.631 
16:05	55.1	55.1	55.1	45	34.1	2	8	248	0.00	29.631 
16:10	55.3	55.3	55.3	45	34.3	3	7	248	0.00	29.631 
16:15	55.4	55.4	55.4	45	34.4	3	6	248	0.00	29.631 
16:20	55.1	55.1	55.1	46	34.7	3	10	248	0.00	29.631 
16:25	54.8	54.8	54.8	46	34.4	4	15	225	0.00	29.631 
16:30	54.8	54.8	54.8	46	34.4	3	10	248	0.00	29.624 
16:35	55.0	55.0	55.0	46	34.6	3	9	270	0.00	29.624 
16:40	55.1	55.1	55.1	46	34.7	4	10	270	0.00	29.624 
16:45	55.0	55.0	55.0	46	34.6	3	7	270	0.00	29.632 
16:50	54.8	54.8	54.8	46	34.4	3	9	270	0.00	29.632 
16:55	54.8	54.8	54.8	45	33.9	3	9	248	0.00	29.632 
17:00	55.0	55.0	55.0	44	33.5	4	12	248	0.00	29.627 
17:05	55.0	55.0	55.0	44	33.5	3	10	248	0.00	29.627 
17:10	54.8	54.8	54.8	44	33.3	4	12	248	0.00	29.627 
17:15	54.8	54.8	54.8	44	33.3	3	11	248	0.00	29.631 
17:20	54.8	54.8	54.8	45	33.9	3	8	248	0.00	29.631 
17:25	55.0	55.0	55.0	45	34.1	4	10	248	0.00	29.631 
17:30	54.8	54.8	54.8	45	33.9	5	11	270	0.00	29.636 
17:35	54.8	54.8	54.8	46	34.4	3	9	248	0.00	29.636 
17:40	54.7	54.7	54.7	46	34.3	4	11	248	0.00	29.636 
17:45	54.7	54.7	54.7	46	34.3	3	9	270	0.00	29.638 
17:50	54.2	54.2	54.2	46	33.9	3	6	270	0.00	29.638 
17:55	53.8	53.8	53.8	47	34.0	3	7	248	0.00	29.638 
18:00	53.5	53.5	53.5	48	34.3	2	10	248	0.00	29.643 
18:05	53.2	53.2	53.2	48	34.0	2	6	248	0.00	29.643 
18:10	52.8	52.8	52.8	50	34.7	2	6	248	0.00	29.643 
18:15	52.5	52.5	52.5	50	34.4	2	7	270	0.00	29.651 
18:20	52.2	52.2	52.2	50	34.1	2	7	248	0.00	29.651 
18:25	52.2	52.2	52.2	51	34.6	3	7	248	0.00	29.651 
18:30	51.9	51.9	51.9	52	34.8	1	5	270	0.00	29.654 
18:35	51.7	51.7	51.7	52	34.6	3	7	248	0.00	29.654 
18:40	51.7	51.7	51.7	53	35.1	3	7	248	0.00	29.654 
18:45	51.6	51.6	51.6	53	35.0	2	6	248	0.00	29.658 
18:50	51.6	51.6	51.6	54	35.5	2	5	248	0.00	29.658 
18:55	51.3	51.3	51.3	54	35.2	2	5	248	0.00	29.658 
19:00	51.3	51.3	51.3	55	35.7	2	5	270	0.00	29.669 
19:05	51.0	51.0	51.0	56	35.9	2	6	248	0.00	29.669 
19:10	51.0	51.0	51.0	57	36.3	2	5	248	0.00	29.669 
19:15	50.8	50.8	50.8	58	36.6	2	6	248	0.00	29.673 
19:20	50.5	50.5	50.5	58	36.3	2	5	248	0.00	29.673 
19:25	50.2	50.2	50.2	59	36.4	1	4	270	0.00	29.673 
19:30	50.1	50.1	50.1	60	36.8	2	4	248	0.00	29.685 
19:35	49.8	49.8	49.8	60	36.5	1	5	248	0.00	29.685 
19:40	49.6	49.6	49.6	59	35.9	2	4	248	0.00	29.685 
19:45	49.5	49.5	49.5	60	36.2	2	5	225	0.00	29.692 
19:50	49.4	49.4	49.4	60	36.1	2	5	248	0.00	29.692 
19:55	49.1	49.1	49.1	60	35.8	2	5	248	0.00	29.692 
20:00	48.9	48.9	48.9	60	35.6	1	5	248	0.00	29.705 
20:05	48.6	48.6	48.6	61	35.8	1	4	248	0.00	29.705 
20:10	48.5	48.5	48.5	61	35.7	2	7	248	0.00	29.705 
20:15	48.5	48.5	48.5	61	35.7	2	5	248	0.00	29.708 
20:20	48.3	48.3	48.3	61	35.5	2	5	270	0.00	29.708 
20:25	48.3	48.3	48.3	60	35.1	3	7	270	0.00	29.708 
20:30	48.2	48.2	48.2	59	34.6	2	5	270	0.00	29.718 
20:35	48.0	48.0	48.0	59	34.4	2	4	292	0.00	29.718 
20:40	47.7	47.7	47.7	60	34.5	2	5	270	0.00	29.718 
20:45	47.4	47.4	47.4	60	34.2	2	4	248	0.00	29.734 
20:50	47.1	47.1	47.1	61	34.4	1	4	248	0.00	29.734 
20:55	46.7	46.7	46.7	62	34.4	1	3	248	0.00	29.734 
21:00	46.4	46.4	46.4	62	34.1	1	3	248	0.00	29.742 
21:05	46.2	46.2	46.2	61	33.5	3	7	270	0.00	29.742 
21:10	46.2	46.2	46.2	58	32.2	2	5	270	0.00	29.742 
21:15	46.0	46.0	46.0	57	31.6	2	4	270	0.00	29.749 
21:20	46.0	46.0	46.0	55	30.7	3	6	248	0.00	29.749 
21:25	46.1	44.4	46.1	53	29.9	4	6	270	0.00	29.749 
21:30	46.1	44.4	46.1	53	29.9	4	6	270	0.00	29.752 
21:35	45.7	45.7	45.7	54	30.0	2	4	270	0.00	29.752 
21:40	45.4	45.4	45.4	55	30.2	3	7	270	0.00	29.752 
21:45	45.2	45.2	45.2	55	30.0	3	7	270	0.00	29.759 
21:50	44.9	44.9	44.9	57	30.6	2	5	270	0.00	29.759 
21:55	44.6	44.6	44.6	58	30.7	3	7	270	0.00	29.759 
22:00	44.5	44.5	44.5	58	30.7	3	6	270	0.00	29.779 
22:05	44.2	44.2	44.2	59	30.8	3	6	270	0.00	29.779 
22:10	44.1	44.1	44.1	60	31.1	2	4	270	0.00	29.779 
22:15	43.8	43.8	43.8	61	31.2	3	5	270	0.00	29.780 
22:20	43.6	43.6	43.6	61	31.0	2	5	270	0.00	29.780 
22:25	43.3	43.3	43.3	62	31.2	2	5	270	0.00	29.780 
22:30	43.2	43.2	43.2	62	31.1	2	6	270	0.00	29.778 
22:35	42.9	42.9	42.9	63	31.2	2	7	315	0.00	29.778 
22:40	42.8	42.8	42.8	64	31.5	3	6	248	0.00	29.778 
22:45	42.8	42.8	42.8	65	31.9	3	7	270	0.00	29.782 
22:50	42.6	42.6	42.6	65	31.7	3	7	270	0.00	29.782 
22:55	42.3	42.3	42.3	66	31.8	2	7	270	0.00	29.782 
23:00	42.1	42.1	42.1	67	31.9	3	5	270	0.00	29.785 
23:05	41.9	41.9	41.9	67	31.8	3	10	270	0.00	29.785 
23:10	41.8	41.8	41.8	68	32.0	3	6	270	0.00	29.785 
23:15	41.6	41.6	41.6	68	31.8	2	5	270	0.00	29.796 
23:20	41.5	41.5	41.5	69	32.1	3	10	270	0.00	29.796 
23:25	41.2	41.2	41.2	69	31.8	3	6	270	0.00	29.796 
23:30	41.1	41.1	41.1	65	30.2	2	4	292	0.00	29.806 
23:35	40.9	40.9	40.9	69	31.5	2	6	270	0.00	29.806 
23:40	40.9	40.9	40.9	69	31.5	3	5	270	0.00	29.806 
23:45	40.8	40.8	40.8	69	31.4	2	4	270	0.00	29.814 
23:50	40.5	40.5	40.5	70	31.5	2	5	270	0.00	29.814 
23:55	40.3	40.3	40.3	70	31.3	2	5	270	0.00	29.814 

CoCoRaHS
IN-AL-39
A2 Web Hosting
Creative Commons License
GoDaddy
search engine by freefind advanced

loaded 2018-11-13 17:42:49 • last modified 2010-11-18 10:43:29
Privacy PolicyDisclaimer
• wx.awcolley.com is powered by PmWiki v.2002016 •
• all content (unless otherwise noted) © 2018 A W Colley